Time;durP1;ratioP1;P1;durP2;ratioP2;P2;SDS_P1;SDS_P2;PMS_P1;PMS_P2;Temp;Humidity;BMP_temperature;BMP_pressure;BME280_temperature;BME280_humidity;BME280_pressure;Samples;Min_cycle;Max_cycle;Signal;HPM_P1;HPM_P2
2023/08/25 08:11:06;;;;;;;10.48;4.12;;;;;;;28.86;35.75;100269.50;1711848;78;21149;-71
2023/08/25 08:13:44;;;;;;;8.33;3.87;;;;;;;29.14;34.79;100275.78;1737352;81;21412;-67
2023/08/25 08:16:13;;;;;;;6.30;3.05;;;;;;;29.33;33.66;100270.17;1731265;82;20976;-66
2023/08/25 08:18:42;;;;;;;5.40;2.87;;;;;;;29.31;33.39;100278.71;1715720;82;21462;-69
2023/08/25 08:21:13;;;;;;;5.60;2.62;;;;;;;29.39;33.45;100281.31;1711890;82;21044;-68
2023/08/25 08:23:42;;;;;;;5.22;2.90;;;;;;;29.49;33.39;100281.05;1748189;82;21101;-68
2023/08/25 08:26:13;;;;;;;5.70;3.62;;;;;;;29.63;33.10;100285.99;1748221;82;21043;-68
2023/08/25 08:28:44;;;;;;;6.80;4.17;;;;;;;29.83;32.80;100279.73;1712463;84;21102;-67
2023/08/25 08:31:18;;;;;;;8.38;4.10;;;;;;;30.03;32.52;100278.91;1697802;84;21023;-68
2023/08/25 08:33:43;;;;;;;8.10;4.42;;;;;;;30.21;32.27;100284.23;1692805;83;21086;-65
2023/08/25 08:36:15;;;;;;;10.30;3.75;;;;;;;30.34;32.08;100285.23;1721587;82;21291;-69
2023/08/25 08:38:43;;;;;;;11.33;3.72;;;;;;;30.48;31.99;100281.65;1720939;83;21066;-68
2023/08/25 08:41:13;;;;;;;7.72;3.05;;;;;;;30.69;31.54;100277.61;1721019;82;21470;-69
2023/08/25 08:43:43;;;;;;;5.67;2.67;;;;;;;30.80;30.73;100278.09;1693463;83;21125;-66
2023/08/25 08:46:15;;;;;;;8.18;3.27;;;;;;;30.84;30.92;100284.73;1721348;83;21027;-68
2023/08/25 08:48:45;;;;;;;6.37;3.25;;;;;;;30.91;30.74;100283.64;1735272;82;21557;-67
2023/08/25 08:51:17;;;;;;;4.35;2.52;;;;;;;30.93;31.00;100286.96;1739834;82;21119;-67
2023/08/25 08:53:47;;;;;;;6.35;2.90;;;;;;;31.02;30.39;100279.28;1739793;82;21040;-67
2023/08/25 08:56:17;;;;;;;4.53;2.50;;;;;;;30.94;30.40;100292.03;1740517;82;21103;-65
2023/08/25 08:58:46;;;;;;;7.08;2.80;;;;;;;30.68;30.71;100281.61;1740726;82;21048;-66
2023/08/25 09:01:16;;;;;;;5.85;2.65;;;;;;;30.50;31.26;100279.32;1739742;82;21035;-68
2023/08/25 09:03:47;;;;;;;5.05;2.52;;;;;;;30.35;31.34;100282.66;1740085;82;21016;-70
2023/08/25 09:06:17;;;;;;;3.72;2.25;;;;;;;30.19;31.60;100269.61;1739945;82;21059;-68
2023/08/25 09:08:48;;;;;;;5.97;2.90;;;;;;;30.03;31.73;100264.77;1739786;82;21110;-67
2023/08/25 09:11:17;;;;;;;9.23;3.58;;;;;;;29.87;31.96;100262.37;1627523;87;21592;-68
2023/08/25 09:14:03;;;;;;;6.50;2.80;;;;;;;29.77;32.39;100271.73;1648771;87;21098;-67
2023/08/25 09:16:25;;;;;;;5.17;3.00;;;;;;;29.59;32.82;100268.04;1626461;86;21095;-67
2023/08/25 09:18:54;;;;;;;4.28;2.72;;;;;;;29.51;33.14;100268.27;1648756;87;21568;-70
2023/08/25 09:21:25;;;;;;;5.03;2.65;;;;;;;29.46;33.25;100264.19;1646753;87;21079;-67
2023/08/25 09:24:00;;;;;;;5.40;2.85;;;;;;;29.29;33.25;100263.52;1622961;88;21090;-69
2023/08/25 09:26:32;;;;;;;5.42;3.35;;;;;;;29.13;33.37;100260.01;1610892;88;21217;-66
2023/08/25 09:29:02;;;;;;;6.78;2.85;;;;;;;28.90;33.82;100261.47;1622743;87;21078;-65
2023/08/25 09:31:33;;;;;;;6.78;3.60;;;;;;;28.73;34.09;100253.72;1632403;87;21049;-65
2023/08/25 09:34:05;;;;;;;5.22;2.60;;;;;;;28.66;34.44;100253.34;1622877;88;21082;-65
2023/08/25 09:36:34;;;;;;;6.50;2.80;;;;;;;28.67;34.60;100252.19;1701329;83;21110;-66
2023/08/25 09:39:03;;;;;;;5.10;2.42;;;;;;;28.67;34.31;100249.94;1721410;82;21446;-66
2023/08/25 09:41:33;;;;;;;6.28;2.60;;;;;;;28.59;34.57;100243.64;1721028;82;21083;-67
2023/08/25 09:44:03;;;;;;;8.20;2.85;;;;;;;28.47;34.44;100246.21;1721256;82;21047;-66
2023/08/25 09:46:33;;;;;;;4.47;2.35;;;;;;;28.39;34.78;100245.83;1721188;83;21062;-67
2023/08/25 09:49:08;;;;;;;4.62;2.67;;;;;;;28.40;34.71;100259.34;1694613;83;21055;-68
2023/08/25 09:51:44;;;;;;;3.33;2.20;;;;;;;28.38;34.67;100250.37;1721180;83;21090;-66
2023/08/25 09:54:18;;;;;;;6.72;2.40;;;;;;;28.34;34.90;100252.17;1693989;83;21462;-68
2023/08/25 09:56:48;;;;;;;4.17;2.25;;;;;;;28.33;34.69;100250.50;1722082;82;21082;-67
2023/08/25 09:59:17;;;;;;;5.45;2.37;;;;;;;28.27;34.57;100244.16;1720920;82;21102;-67
2023/08/25 10:01:47;;;;;;;8.58;3.37;;;;;;;28.35;34.61;100242.56;1722254;82;21473;-67
2023/08/25 10:04:16;;;;;;;4.62;2.30;;;;;;;28.35;34.61;100242.56;1670237;83;21083;-69
2023/08/25 10:06:46;;;;;;;4.10;2.30;;;;;;;28.35;34.69;100240.58;1721427;82;21074;-67
2023/08/25 10:09:16;;;;;;;8.88;2.87;;;;;;;28.33;34.78;100236.41;1694391;83;21146;-67
2023/08/25 10:11:46;;;;;;;6.97;2.80;;;;;;;28.29;34.84;100226.36;1721342;82;21055;-67
2023/08/25 10:14:14;;;;;;;5.22;2.70;;;;;;;28.32;34.60;100233.34;1717948;82;21082;-67
2023/08/25 10:16:52;;;;;;;5.40;2.58;;;;;;;28.32;34.62;100233.34;1715897;83;21561;-67
2023/08/25 10:19:28;;;;;;;5.53;2.50;;;;;;;28.32;34.62;100233.34;1618637;88;21102;-67
2023/08/25 10:22:01;;;;;;;3.75;2.30;;;;;;;28.25;35.12;100228.73;1609662;88;21547;-67
2023/08/25 10:24:29;;;;;;;3.98;2.60;;;;;;;28.36;35.30;100235.77;1630054;87;21114;-65
2023/08/25 10:26:59;;;;;;;4.85;2.37;;;;;;;28.36;35.30;100235.77;1651432;86;21063;-66
2023/08/25 10:29:28;;;;;;;2.92;2.30;;;;;;;28.40;35.16;100229.75;1629477;86;21130;-67
2023/08/25 10:32:02;;;;;;;7.08;2.92;;;;;;;28.39;34.75;100236.54;1651716;86;21090;-69
2023/08/25 10:34:44;;;;;;;11.00;3.75;;;;;;;28.39;34.75;100236.54;1651670;86;21526;-69
2023/08/25 10:37:26;;;;;;;4.90;2.60;;;;;;;28.36;34.80;100234.36;1682441;82;21463;-67
2023/08/25 10:40:12;;;;;;;8.28;3.52;;;;;;;28.38;34.93;100223.60;1732321;83;21059;-67
2023/08/25 10:42:43;;;;;;;;;;;;;;;28.38;34.93;100223.60;1734609;83;21068;-68
2023/08/25 10:45:11;;;;;;;6.22;4.85;;;;;;;28.46;34.10;100225.64;1707642;82;20510;-68
2023/08/25 10:47:41;;;;;;;3.80;2.80;;;;;;;28.47;33.99;100225.91;1743709;82;21450;-67
2023/08/25 10:50:11;;;;;;;5.08;2.62;;;;;;;28.47;34.18;100225.07;1707144;84;21430;-67
2023/08/25 10:52:45;;;;;;;5.97;2.90;;;;;;;28.50;34.79;100226.67;1722996;82;21023;-67
2023/08/25 10:55:32;;;;;;;6.55;2.87;;;;;;;28.52;34.46;100222.95;1743030;81;21247;-66
2023/08/25 10:58:03;;;;;;;5.35;2.50;;;;;;;28.46;34.37;100218.59;1722170;82;21102;-67
2023/08/25 11:00:43;;;;;;;6.72;2.80;;;;;;;28.36;34.79;100223.92;1707532;84;21052;-69
2023/08/25 11:03:09;;;;;;;3.67;2.50;;;;;;;28.36;34.79;100223.92;1743655;81;21024;-69
2023/08/25 11:05:44;;;;;;;5.83;2.60;;;;;;;28.32;34.41;100215.85;1743387;82;21067;-65
2023/08/25 11:08:27;;;;;;;8.20;3.40;;;;;;;28.25;34.32;100216.05;1707410;83;21588;-65
2023/08/25 11:11:14;;;;;;;4.25;2.25;;;;;;;28.18;34.22;100214.22;1743384;82;21120;-72
2023/08/25 11:13:44;;;;;;;4.70;3.33;;;;;;;28.13;34.36;100213.77;1705266;82;21087;-69
2023/08/25 11:16:14;;;;;;;5.42;2.40;;;;;;;28.15;34.56;100212.04;1744027;82;21110;-66
2023/08/25 11:18:44;;;;;;;6.40;2.65;;;;;;;28.16;34.45;100217.94;1748743;81;21070;-68
2023/08/25 11:21:14;;;;;;;6.90;2.65;;;;;;;28.18;34.03;100202.95;1711756;83;21094;-69
2023/08/25 11:23:45;;;;;;;6.05;3.20;;;;;;;28.17;34.66;100216.78;1638271;86;21085;-67
2023/08/25 11:26:17;;;;;;;4.67;2.42;;;;;;;28.20;34.63;100205.70;1674479;86;21012;-67
2023/08/25 11:28:55;;;;;;;5.65;2.80;;;;;;;28.31;34.55;100202.08;1674530;85;21485;-68
2023/08/25 11:31:25;;;;;;;3.87;2.37;;;;;;;28.35;34.65;100203.11;1674362;85;21113;-66
2023/08/25 11:33:55;;;;;;;6.33;2.70;;;;;;;28.40;34.53;100203.81;1674724;86;21071;-68
2023/08/25 11:36:27;;;;;;;6.00;2.75;;;;;;;28.49;34.07;100203.03;1674578;85;21459;-67
2023/08/25 11:38:57;;;;;;;6.55;3.00;;;;;;;28.53;33.78;100200.66;1674638;86;21151;-69
2023/08/25 11:41:27;;;;;;;5.42;2.40;;;;;;;28.58;33.78;100189.81;1674541;86;22067;-68
2023/08/25 11:43:56;;;;;;;4.05;2.10;;;;;;;28.62;33.75;100202.98;1674733;86;21460;-69
2023/08/25 11:46:24;;;;;;;5.12;2.58;;;;;;;28.56;33.20;100195.78;1674368;85;21206;-65
2023/08/25 11:48:54;;;;;;;5.67;2.67;;;;;;;28.56;33.20;100195.78;1674489;86;21492;-63
2023/08/25 11:51:23;;;;;;;4.05;2.50;;;;;;;28.54;33.49;100193.03;1655620;85;21103;-61
2023/08/25 11:53:52;;;;;;;7.28;3.25;;;;;;;28.52;34.44;100189.13;1739596;82;21009;-61
2023/08/25 11:56:21;;;;;;;4.67;2.42;;;;;;;28.52;34.44;100189.13;1711985;83;21008;-63
2023/08/25 11:58:50;;;;;;;3.62;2.50;;;;;;;28.57;33.88;100183.34;1732085;83;21495;-64
2023/08/25 12:01:19;;;;;;;5.17;2.33;;;;;;;28.60;33.85;100191.16;1732303;83;21049;-62
2023/08/25 12:03:48;;;;;;;4.37;2.40;;;;;;;28.61;33.21;100177.34;1732215;83;21093;-62
2023/08/25 12:06:16;;;;;;;3.72;2.20;;;;;;;28.57;33.43;100182.52;1732083;83;21552;-62
2023/08/25 12:08:45;;;;;;;5.87;2.22;;;;;;;28.54;33.45;100181.17;1732290;83;21052;-63
2023/08/25 12:11:14;;;;;;;3.02;2.15;;;;;;;28.51;33.76;100180.41;1687539;83;21071;-64
2023/08/25 12:13:44;;;;;;;5.97;2.85;;;;;;;28.54;33.93;100178.35;1731404;82;21052;-62
2023/08/25 12:16:13;;;;;;;6.37;2.90;;;;;;;28.59;34.05;100184.44;1728745;82;21048;-62
2023/08/25 12:18:42;;;;;;;7.28;2.77;;;;;;;28.59;34.05;100184.44;1729790;83;21103;-62
2023/08/25 12:21:11;;;;;;;4.15;2.45;;;;;;;28.53;33.72;100183.73;1727590;83;21087;-63
2023/08/25 12:23:41;;;;;;;4.42;2.50;;;;;;;28.53;33.72;100183.73;1729804;82;21435;-61
2023/08/25 12:26:14;;;;;;;2.83;2.22;;;;;;;28.51;33.76;100177.59;1693620;84;21117;-66
2023/08/25 12:28:48;;;;;;;4.00;2.47;;;;;;;28.51;33.61;100184.64;1693826;84;21089;-62
2023/08/25 12:31:17;;;;;;;4.50;2.85;;;;;;;28.51;33.73;100180.98;1693353;85;21096;-62
2023/08/25 12:33:46;;;;;;;6.12;2.80;;;;;;;28.47;34.08;100182.21;1733340;82;21494;-62
2023/08/25 12:36:17;;;;;;;4.90;3.00;;;;;;;28.43;33.93;100178.38;1745953;82;21536;-62
2023/08/25 12:38:46;;;;;;;9.03;2.37;;;;;;;28.43;33.93;100178.38;1745943;82;21046;-62
2023/08/25 12:41:16;;;;;;;5.17;2.50;;;;;;;28.39;34.36;100171.72;1745049;82;21093;-66
2023/08/25 12:43:47;;;;;;;4.95;2.70;;;;;;;28.39;34.03;100173.95;1745147;82;21083;-63
2023/08/25 12:46:18;;;;;;;6.45;2.52;;;;;;;28.44;34.12;100174.97;1745389;82;21086;-66
2023/08/25 12:48:46;;;;;;;4.65;2.72;;;;;;;28.44;34.12;100174.97;1745462;82;21133;-64
2023/08/25 12:51:15;;;;;;;4.22;2.50;;;;;;;28.45;34.04;100174.66;1746036;82;21055;-63
2023/08/25 12:53:44;;;;;;;3.62;2.45;;;;;;;28.49;34.41;100177.66;1746122;82;21094;-64
2023/08/25 12:56:13;;;;;;;3.87;2.70;;;;;;;28.49;34.41;100177.66;1745921;82;21019;-65
2023/08/25 12:58:42;;;;;;;5.47;2.67;;;;;;;28.47;33.92;100174.33;1745961;82;21066;-66
2023/08/25 13:01:12;;;;;;;5.15;2.40;;;;;;;28.47;33.92;100174.33;1745456;81;21502;-66
2023/08/25 13:03:41;;;;;;;5.72;2.80;;;;;;;28.39;33.99;100171.14;1746041;82;21110;-66
2023/08/25 13:06:11;;;;;;;7.87;2.80;;;;;;;28.32;34.08;100171.34;1724755;82;21554;-65
2023/08/25 13:08:40;;;;;;;3.12;2.25;;;;;;;28.23;34.26;100171.83;1745983;82;21039;-64
2023/08/25 13:11:09;;;;;;;7.92;3.15;;;;;;;28.11;34.32;100165.36;1746082;82;21077;-69
2023/08/25 13:13:40;;;;;;;3.72;2.35;;;;;;;28.07;34.32;100164.34;1744031;82;21091;-65
2023/08/25 13:16:10;;;;;;;6.90;2.65;;;;;;;28.03;35.00;100170.36;1738088;82;21082;-65
2023/08/25 13:18:41;;;;;;;4.10;2.62;;;;;;;28.01;35.11;100181.11;1731261;82;21084;-66
2023/08/25 13:21:11;;;;;;;3.83;2.67;;;;;;;27.99;35.10;100175.80;1731341;83;21012;-66
2023/08/25 13:23:40;;;;;;;8.48;2.80;;;;;;;28.00;34.75;100168.18;1729738;83;21590;-65
2023/08/25 13:26:11;;;;;;;4.90;2.65;;;;;;;28.00;34.73;100168.18;1726787;83;21028;-65
2023/08/25 13:28:40;;;;;;;8.40;3.08;;;;;;;27.99;34.83;100167.92;1729864;83;21048;-65
2023/08/25 13:31:10;;;;;;;12.53;2.87;;;;;;;27.95;35.16;100169.11;1729839;83;20988;-69
2023/08/25 13:33:40;;;;;;;6.05;2.60;;;;;;;27.93;35.37;100171.98;1729732;83;21554;-64
2023/08/25 13:36:09;;;;;;;7.42;3.17;;;;;;;27.91;35.25;100172.88;1729750;83;21075;-65
2023/08/25 13:38:39;;;;;;;6.55;2.65;;;;;;;27.87;35.34;100164.81;1729896;83;21107;-66
2023/08/25 13:41:08;;;;;;;6.30;2.45;;;;;;;27.87;35.41;100171.86;1729766;83;20981;-68
2023/08/25 13:43:39;;;;;;;5.30;2.75;;;;;;;27.81;35.40;100171.14;1729980;83;21024;-65
2023/08/25 13:46:09;;;;;;;6.55;2.50;;;;;;;27.76;35.62;100169.86;1709112;83;21008;-66
2023/08/25 13:48:39;;;;;;;4.40;2.75;;;;;;;27.75;35.54;100164.80;1729908;83;21047;-65
2023/08/25 13:51:09;;;;;;;5.60;2.77;;;;;;;27.76;36.06;100169.28;1730640;83;21039;-68
2023/08/25 13:53:40;;;;;;;6.12;2.98;;;;;;;27.76;35.91;100153.80;1710606;83;21099;-65
2023/08/25 13:56:11;;;;;;;5.03;2.50;;;;;;;27.77;36.18;100161.67;1731366;83;21083;-65
2023/08/25 13:58:41;;;;;;;6.08;2.90;;;;;;;27.77;36.17;100171.52;1741676;82;21047;-67
2023/08/25 14:01:10;;;;;;;5.17;2.80;;;;;;;27.77;36.02;100164.48;1741631;82;21043;-67
2023/08/25 14:03:39;;;;;;;4.17;2.40;;;;;;;27.72;36.43;100159.81;1741546;82;21474;-66
2023/08/25 14:06:09;;;;;;;7.67;3.87;;;;;;;27.72;36.43;100159.81;1741751;82;21121;-65
2023/08/25 14:08:41;;;;;;;5.70;3.22;;;;;;;27.72;36.01;100161.22;1741608;82;21074;-66
2023/08/25 14:11:11;;;;;;;7.28;2.98;;;;;;;27.72;36.17;100156.16;1696188;84;21024;-68
2023/08/25 14:13:39;;;;;;;7.40;2.83;;;;;;;27.74;36.03;100163.14;1686147;84;21079;-66
2023/08/25 14:16:09;;;;;;;6.35;2.90;;;;;;;27.79;35.95;100157.38;1671377;86;21028;-67
2023/08/25 14:18:37;;;;;;;5.70;2.60;;;;;;;27.83;35.58;100157.58;1680824;85;21095;-64
2023/08/25 14:21:07;;;;;;;7.22;5.08;;;;;;;27.87;35.32;100162.00;1671585;85;21024;-65
2023/08/25 14:23:38;;;;;;;6.97;3.35;;;;;;;27.88;35.24;100161.68;1701573;84;21142;-67
2023/08/25 14:26:08;;;;;;;6.50;3.10;;;;;;;27.89;35.31;100167.56;1702168;84;21486;-67
2023/08/25 14:28:39;;;;;;;6.25;2.80;;;;;;;27.93;34.85;100158.73;1702561;84;21039;-66
2023/08/25 14:31:09;;;;;;;8.35;2.98;;;;;;;27.93;34.85;100158.73;1702167;84;21514;-69
2023/08/25 14:33:37;;;;;;;4.17;2.80;;;;;;;27.93;34.98;100162.13;1702258;84;21560;-67
2023/08/25 14:36:06;;;;;;;6.03;2.90;;;;;;;27.94;35.12;100164.62;1702266;84;21071;-66
2023/08/25 14:38:37;;;;;;;5.87;2.65;;;;;;;27.94;35.17;100165.20;1702219;84;21103;-66
2023/08/25 14:41:07;;;;;;;5.85;2.95;;;;;;;27.93;35.23;100162.13;1702365;84;21454;-65
2023/08/25 14:43:36;;;;;;;6.00;2.83;;;;;;;27.92;35.21;100162.70;1702347;83;21031;-64
2023/08/25 14:46:05;;;;;;;4.72;2.35;;;;;;;27.91;35.21;100159.63;1702119;84;21106;-65
2023/08/25 14:48:34;;;;;;;7.83;2.80;;;;;;;27.89;35.07;100159.70;1702420;84;21151;-64
2023/08/25 14:51:04;;;;;;;6.28;2.83;;;;;;;27.86;35.16;100159.75;1702341;84;21067;-67
2023/08/25 14:53:33;;;;;;;6.20;2.58;;;;;;;27.80;35.40;100165.25;1702415;84;21034;-64
2023/08/25 14:56:02;;;;;;;5.78;2.90;;;;;;;27.80;35.40;100165.25;1702323;84;21087;-65
2023/08/25 14:58:31;;;;;;;6.12;2.52;;;;;;;27.78;35.91;100164.73;1691713;83;21082;-65
2023/08/25 15:01:00;;;;;;;5.65;2.83;;;;;;;27.74;36.47;100160.32;1741673;82;21149;-66
2023/08/25 15:03:29;;;;;;;3.47;2.47;;;;;;;27.75;36.61;100155.52;1731343;83;21611;-66
2023/08/25 15:06:00;;;;;;;4.90;2.50;;;;;;;27.76;36.70;100155.78;1741546;82;21516;-66
2023/08/25 15:08:29;;;;;;;6.75;5.97;;;;;;;27.74;36.85;100152.45;1731195;83;21483;-65
2023/08/25 15:10:59;;;;;;;5.87;2.90;;;;;;;27.72;36.92;100146.30;1696405;84;21025;-69
2023/08/25 15:13:28;;;;;;;4.67;3.05;;;;;;;27.70;36.93;100150.84;1686205;85;21098;-66
2023/08/25 15:15:58;;;;;;;3.62;2.60;;;;;;;27.67;37.02;100147.84;1678439;85;21531;-66
2023/08/25 15:18:27;;;;;;;6.15;2.20;;;;;;;27.67;36.93;100146.42;1745148;82;21879;-67
2023/08/25 15:20:58;;;;;;;4.60;2.65;;;;;;;27.71;36.86;100145.47;1746331;82;21051;-64
2023/08/25 15:23:27;;;;;;;4.35;2.70;;;;;;;27.77;36.82;100147.59;1731961;82;21025;-65
2023/08/25 15:25:56;;;;;;;5.25;2.30;;;;;;;27.83;36.89;100148.30;1711985;83;21487;-65
2023/08/25 15:28:28;;;;;;;4.05;2.72;;;;;;;27.86;36.93;100144.27;1732282;83;21319;-65
2023/08/25 15:31:10;;;;;;;4.58;2.40;;;;;;;27.87;36.58;100140.30;1732246;83;21059;-67
2023/08/25 15:33:40;;;;;;;6.37;2.60;;;;;;;27.87;36.85;100140.30;1732215;83;21103;-67
2023/08/25 15:36:11;;;;;;;4.95;2.45;;;;;;;27.83;36.70;100147.72;1732129;83;20992;-67
2023/08/25 15:38:40;;;;;;;5.83;2.20;;;;;;;27.80;36.96;100151.17;1732148;83;21459;-66
2023/08/25 15:41:11;;;;;;;3.98;2.50;;;;;;;27.73;36.82;100144.58;1732237;83;21486;-65
2023/08/25 15:43:40;;;;;;;5.70;2.30;;;;;;;27.68;36.90;100146.69;1732433;83;21059;-70
2023/08/25 15:46:09;;;;;;;5.37;2.40;;;;;;;27.63;37.07;100143.98;1732157;83;21112;-65
2023/08/25 15:48:38;;;;;;;4.92;2.50;;;;;;;27.60;37.31;100144.59;1732141;83;21012;-68
2023/08/25 15:51:07;;;;;;;4.53;2.50;;;;;;;27.56;37.43;100147.78;1732360;82;21671;-66
2023/08/25 15:53:36;;;;;;;4.65;2.83;;;;;;;27.52;37.32;100142.53;1732341;83;21074;-65
2023/08/25 15:56:05;;;;;;;4.08;2.50;;;;;;;27.46;37.22;100146.88;1732143;83;21017;-66
2023/08/25 15:58:35;;;;;;;4.58;2.65;;;;;;;27.39;37.27;100146.47;1722555;83;21071;-67
2023/08/25 16:01:08;;;;;;;3.50;2.40;;;;;;;27.37;37.60;100150.75;1749032;81;21080;-65
2023/08/25 16:03:36;;;;;;;3.52;2.37;;;;;;;27.32;37.49;100148.05;1748574;82;21071;-65
2023/08/25 16:06:07;;;;;;;5.45;2.50;;;;;;;27.29;37.53;100150.05;1689026;85;21083;-66
2023/08/25 16:08:36;;;;;;;9.88;3.25;;;;;;;27.25;37.73;100149.85;1722642;82;21054;-65
2023/08/25 16:11:08;;;;;;;4.72;3.00;;;;;;;27.23;37.92;100154.96;1718078;83;21512;-65
2023/08/25 16:13:43;;;;;;;7.12;2.80;;;;;;;27.20;37.96;100147.72;1718065;83;21062;-65
2023/08/25 16:16:13;;;;;;;3.98;2.42;;;;;;;27.16;38.31;100154.55;1676184;85;21100;-65
2023/08/25 16:18:45;;;;;;;4.08;2.60;;;;;;;27.13;38.44;100157.42;1739192;82;21466;-66
2023/08/25 16:21:16;;;;;;;5.25;2.80;;;;;;;27.11;38.28;100158.87;1738741;82;21093;-67
2023/08/25 16:23:45;;;;;;;5.28;2.37;;;;;;;27.08;38.35;100160.34;1738646;82;21458;-66
2023/08/25 16:26:16;;;;;;;4.33;2.50;;;;;;;27.06;38.40;100175.86;1737818;82;21520;-64
2023/08/25 16:28:46;;;;;;;5.60;2.50;;;;;;;27.03;38.38;100172.27;1738636;82;21540;-66
2023/08/25 16:31:16;;;;;;;6.87;2.60;;;;;;;26.98;38.33;100171.80;1738837;82;21062;-65
2023/08/25 16:33:45;;;;;;;6.80;2.77;;;;;;;26.97;38.51;100173.49;1738736;82;21078;-65
2023/08/25 16:36:14;;;;;;;7.08;2.77;;;;;;;26.93;38.88;100178.91;1738596;82;21520;-65
2023/08/25 16:38:43;;;;;;;7.95;3.20;;;;;;;26.91;39.41;100177.55;1738636;82;21075;-66
2023/08/25 16:41:13;;;;;;;7.40;3.05;;;;;;;26.84;39.83;100178.80;1738755;82;21074;-66
2023/08/25 16:43:43;;;;;;;4.78;2.50;;;;;;;26.76;39.97;100185.72;1738741;82;21074;-65
2023/08/25 16:46:13;;;;;;;6.65;2.70;;;;;;;26.67;39.94;100178.58;1738515;82;21519;-66
2023/08/25 16:48:42;;;;;;;6.50;2.30;;;;;;;26.62;40.08;100184.26;1738676;82;21214;-65
2023/08/25 16:51:14;;;;;;;8.43;2.75;;;;;;;26.58;40.65;100181.81;1738562;82;21098;-65
2023/08/25 16:53:43;;;;;;;6.42;2.72;;;;;;;26.52;41.30;100184.45;1738739;82;21015;-66
2023/08/25 16:56:12;;;;;;;5.67;2.50;;;;;;;26.43;41.55;100187.14;1738679;81;21651;-66
2023/08/25 16:58:41;;;;;;;8.35;3.25;;;;;;;26.35;41.78;100192.05;1738533;82;21498;-65
2023/08/25 17:01:18;;;;;;;6.95;2.90;;;;;;;26.27;42.11;100196.11;1738738;82;21142;-66
2023/08/25 17:03:49;;;;;;;4.78;2.80;;;;;;;26.20;42.24;100195.09;1738698;82;21075;-65
2023/08/25 17:06:18;;;;;;;6.37;3.17;;;;;;;26.14;42.32;100189.30;1738666;82;21043;-65
2023/08/25 17:08:47;;;;;;;10.40;3.27;;;;;;;26.08;42.50;100198.95;1738747;82;21011;-65
2023/08/25 17:11:16;;;;;;;6.33;2.92;;;;;;;26.03;42.73;100198.47;1738728;82;21038;-66
2023/08/25 17:13:46;;;;;;;7.97;2.92;;;;;;;25.97;43.25;100191.80;1738534;82;21051;-66
2023/08/25 17:16:15;;;;;;;4.78;2.80;;;;;;;25.84;43.87;100194.24;1738820;81;21532;-66
2023/08/25 17:18:44;;;;;;;5.70;3.10;;;;;;;25.73;43.96;100197.51;1738926;82;21048;-66
2023/08/25 17:21:14;;;;;;;5.55;3.12;;;;;;;25.68;44.26;100206.00;1739223;82;21015;-65
2023/08/25 17:23:44;;;;;;;5.70;2.60;;;;;;;25.58;44.58;100204.98;1738899;81;21043;-66
2023/08/25 17:26:13;;;;;;;8.80;3.02;;;;;;;25.52;44.84;100207.59;1739045;82;20999;-66
2023/08/25 17:28:43;;;;;;;5.40;2.42;;;;;;;25.41;45.26;100207.46;1738772;82;21039;-67
2023/08/25 17:31:13;;;;;;;7.40;2.92;;;;;;;25.29;45.46;100203.66;1738881;82;21066;-67
2023/08/25 17:33:42;;;;;;;7.95;3.10;;;;;;;25.21;45.58;100214.70;1739102;82;21015;-67
2023/08/25 17:36:14;;;;;;;5.00;3.10;;;;;;;25.14;45.78;100214.23;1738992;82;21493;-67
2023/08/25 17:38:42;;;;;;;8.40;2.77;;;;;;;25.07;45.93;100223.00;1738853;82;21051;-65
2023/08/25 17:41:12;;;;;;;7.33;2.52;;;;;;;24.98;46.17;100224.79;1739058;82;21062;-66
2023/08/25 17:43:41;;;;;;;12.15;3.83;;;;;;;24.88;46.20;100225.71;1739076;82;21054;-66
2023/08/25 17:46:14;;;;;;;8.10;3.10;;;;;;;24.83;46.35;100227.73;1739050;82;21055;-66
2023/08/25 17:48:44;;;;;;;11.35;3.90;;;;;;;24.76;46.51;100230.88;1738877;82;21051;-66
2023/08/25 17:51:13;;;;;;;9.88;3.30;;;;;;;24.71;46.59;100226.73;1738869;82;21142;-67
2023/08/25 17:53:42;;;;;;;9.40;3.62;;;;;;;24.63;46.73;100235.19;1739023;82;21090;-65
2023/08/25 17:56:12;;;;;;;10.53;3.37;;;;;;;24.55;47.05;100237.79;1739036;82;21039;-66
2023/08/25 17:58:40;;;;;;;9.20;3.45;;;;;;;24.50;47.46;100237.84;1738112;82;21502;-66
2023/08/25 18:01:10;;;;;;;9.08;3.77;;;;;;;24.46;47.79;100233.95;1738422;82;20996;-64
2023/08/25 18:03:39;;;;;;;7.75;3.70;;;;;;;24.40;47.96;100231.77;1738880;82;21125;-66
2023/08/25 18:06:09;;;;;;;12.03;4.10;;;;;;;24.36;48.07;100228.44;1739268;81;21027;-67
2023/08/25 18:08:40;;;;;;;8.08;3.55;;;;;;;24.34;48.15;100229.56;1738949;82;21102;-66
2023/08/25 18:11:09;;;;;;;9.58;3.75;;;;;;;24.31;48.40;100227.92;1738881;82;21475;-64
2023/08/25 18:13:39;;;;;;;9.30;3.42;;;;;;;24.26;48.59;100227.93;1739166;82;21426;-64
2023/08/25 18:16:07;;;;;;;7.87;3.08;;;;;;;24.20;48.38;100219.30;1744054;80;21494;-68
2023/08/25 18:18:37;;;;;;;6.28;3.12;;;;;;;24.12;48.51;100231.95;1748845;82;21066;-65
2023/08/25 18:21:06;;;;;;;11.12;3.60;;;;;;;24.07;48.59;100236.20;1748860;82;21074;-65
2023/08/25 18:23:35;;;;;;;8.08;3.67;;;;;;;24.00;48.69;100234.26;1748672;81;21054;-65
2023/08/25 18:26:04;;;;;;;12.58;4.25;;;;;;;23.93;48.30;100233.19;1748711;82;21070;-65
2023/08/25 18:28:33;;;;;;;9.28;4.33;;;;;;;23.85;48.16;100232.41;1748598;82;21015;-66
2023/08/25 18:31:03;;;;;;;12.13;4.42;;;;;;;23.83;48.23;100233.81;1748897;82;21474;-65
2023/08/25 18:33:37;;;;;;;11.60;3.95;;;;;;;23.76;48.48;100235.54;1748942;81;21502;-64
2023/08/25 18:36:12;;;;;;;7.37;3.70;;;;;;;23.72;48.35;100233.05;1748713;81;21039;-66
2023/08/25 18:38:41;;;;;;;13.53;3.90;;;;;;;23.71;48.59;100226.61;1748435;82;21058;-65
2023/08/25 18:41:11;;;;;;;8.95;3.75;;;;;;;23.66;48.75;100227.20;1748818;82;21054;-66
2023/08/25 18:43:40;;;;;;;6.97;3.85;;;;;;;23.63;48.61;100235.61;1748813;82;21049;-67
2023/08/25 18:46:14;;;;;;;6.95;3.27;;;;;;;23.58;48.73;100231.45;1748767;82;21524;-66
2023/08/25 18:48:43;;;;;;;8.93;3.75;;;;;;;23.54;48.87;100231.72;1748854;82;21046;-66
2023/08/25 18:51:14;;;;;;;8.10;3.70;;;;;;;23.50;48.87;100230.62;1748797;82;21097;-65
2023/08/25 18:53:43;;;;;;;9.63;3.60;;;;;;;23.49;49.00;100239.30;1748581;82;21494;-65
2023/08/25 18:56:13;;;;;;;10.00;3.85;;;;;;;23.48;49.21;100232.87;1748754;82;21082;-65
2023/08/25 18:58:43;;;;;;;11.80;4.65;;;;;;;23.49;49.22;100228.11;1748576;81;21491;-67
2023/08/25 19:01:11;;;;;;;8.15;4.22;;;;;;;23.48;49.16;100225.88;1748939;82;21007;-64
2023/08/25 19:03:41;;;;;;;11.83;4.47;;;;;;;23.45;49.21;100222.25;1748848;82;21066;-65
2023/08/25 19:06:12;;;;;;;8.53;3.98;;;;;;;23.41;49.38;100216.96;1748786;82;21051;-66
2023/08/25 19:08:43;;;;;;;8.90;4.37;;;;;;;23.37;49.56;100214.44;1748739;82;21066;-65
2023/08/25 19:11:13;;;;;;;10.72;4.83;;;;;;;23.33;49.60;100214.17;1748545;82;21043;-64
2023/08/25 19:13:42;;;;;;;10.50;4.40;;;;;;;23.29;49.64;100215.03;1748617;82;21481;-65
2023/08/25 19:16:11;;;;;;;11.70;4.22;;;;;;;23.25;49.76;100207.78;1748521;81;21118;-66
2023/08/25 19:18:41;;;;;;;12.00;4.55;;;;;;;23.23;49.63;100208.62;1748577;82;21035;-65
2023/08/25 19:21:10;;;;;;;10.18;4.50;;;;;;;23.21;49.64;100212.83;1745741;82;21059;-65
2023/08/25 19:23:43;;;;;;;12.10;4.62;;;;;;;23.16;49.70;100216.48;1748964;82;21031;-66
2023/08/25 19:26:10;;;;;;;8.73;4.83;;;;;;;23.11;49.75;100218.46;1748342;82;21050;-66
2023/08/25 19:28:41;;;;;;;13.38;5.60;;;;;;;23.06;50.08;100210.93;1741501;82;21098;-65
2023/08/25 19:31:16;;;;;;;11.03;4.83;;;;;;;23.04;50.67;100211.22;1741226;82;21058;-65
2023/08/25 19:33:47;;;;;;;10.68;4.50;;;;;;;23.01;50.86;100214.58;1741445;82;21046;-65
2023/08/25 19:36:17;;;;;;;9.83;4.30;;;;;;;22.99;50.77;100214.59;1741421;82;21104;-67
2023/08/25 19:38:46;;;;;;;9.68;4.22;;;;;;;22.99;50.79;100215.98;1741355;82;21066;-65
2023/08/25 19:41:16;;;;;;;7.80;3.95;;;;;;;22.96;50.96;100216.00;1741379;82;21080;-67
2023/08/25 19:43:47;;;;;;;11.53;4.70;;;;;;;22.90;51.02;100226.08;1741420;82;21082;-65
2023/08/25 19:46:15;;;;;;;10.45;4.42;;;;;;;22.85;51.09;100224.13;1741183;82;21091;-66
2023/08/25 19:48:45;;;;;;;10.58;4.60;;;;;;;22.80;51.25;100226.94;1741212;82;21046;-66